GMFF Airport Information

Runway Information
Runway 09 Length 10499 ft width 148 ft
Elevation 1854 ft Threshold 0 ft Heading 90
Runway 27 Length 10499 ft Width 148 ft
Elevation 1890 ft Threshold 820 ft Heading 270
Airport Frequencies
Type TWR Name TWR Frequency 118.6 MHZ
Airport Navaids
Type VOR-DME Name Saiss Frequency 115700 KHZ
Airport Weather Information & NOTAM
ADDS - METARS form results

(2125 UTC 12 December 2018)
Data provider http://aviationweather.gov/metar/data/
 
METAR text: GMFF 122100Z 21005KT 9999 BKN023 12/09 Q1025 NOSIG
Conditions at: GMFF (FES-SAIS , MA) observed 2100 UTC 12 December 2018
Temperature: 12.0°C (54°F)
Dewpoint: 9.0°C (48°F) [RH = 82%]
Pressure (altimeter): 30.27 inches Hg (1025.0 mb)
Winds: from the SSW (210 degrees) at 6 MPH (5 knots; 2.6 m/s)
Visibility: 6 or more miles (10+ km)
Ceiling: 2300 feet AGL
Clouds: broken clouds at 2300 feet AGL
Weather: no significant weather observed at this time

METAR text: GMFF 122030Z 22006KT 9999 FEW026 12/09 Q1025 NOSIG
Conditions at: GMFF (FES-SAIS , MA) observed 2030 UTC 12 December 2018
Temperature: 12.0°C (54°F)
Dewpoint: 9.0°C (48°F) [RH = 82%]
Pressure (altimeter): 30.27 inches Hg (1025.0 mb)
Winds: from the SW (220 degrees) at 7 MPH (6 knots; 3.1 m/s)
Visibility: 6 or more miles (10+ km)
Ceiling: at least 12,000 feet AGL
Clouds: few clouds at 2600 feet AGL
Weather: no significant weather observed at this time

Forecast for: GMFF (FES-SAIS , MA)
Text: TAF GMFF 121700Z 1218/1324 32008KT 9999 FEW026
Forecast period: 1800 UTC 12 December 2018 to 1200 UTC 13 December 2018
Forecast type: FROM: standard forecast or significant change
Winds: from the NW (320 degrees) at 9 MPH (8 knots; 4.1 m/s)
Visibility: 6 or more miles 10+ km)
Ceiling: at least 12,000 feet AGL
Clouds: few clouds at 2600 feet AGL
Weather: no significant weather forecast for this period
Text: PROB30
Forecast period: 2200 UTC 12 December 2018 to 0600 UTC 13 December 2018
Forecast type: TEMPORARY: The following changes expected for less than half the time period
Visibility: 1.86 miles (2.99 km)
Ceiling: 600 feet AGL
Clouds: broken clouds at 600 feet AGL
Weather: BR  (mist)
Text: TEMPO 1222/1306 3000 BR BKN006
Forecast period: 1200 UTC 13 December 2018 to 0000 UTC 14 December 2018
Forecast type: BECOMING: Conditions expected to become as follows by 1800 UTC 13 December 2018
Winds: from the NW (320 degrees) at 9 MPH (8 knots; 4.1 m/s)
Visibility: 4 miles (6 km)
Ceiling: 2600 feet AGL
Clouds: scattered clouds at 1300 feet AGL
broken clouds at 2600 feet AGL
Weather: RA  (moderate rain)